Time;durP1;ratioP1;P1;durP2;ratioP2;P2;SDS_P1;SDS_P2;PMS_P1;PMS_P2;Temp;Humidity;BMP_temperature;BMP_pressure;BME280_temperature;BME280_humidity;BME280_pressure;Samples;Min_cycle;Max_cycle;Signal;HPM_P1;HPM_P2
2022/09/09 00:02:21;;;;;;;8.97;5.57;;;16.60;99.90;;;;;;5005340;28;20206;-88
2022/09/09 00:05:16;;;;;;;8.47;5.20;;;16.40;99.90;;;;;;4986995;28;20244;-91
2022/09/09 00:07:52;;;;;;;8.27;4.20;;;16.60;99.90;;;;;;4995051;28;20211;-89
2022/09/09 00:10:31;;;;;;;8.30;4.17;;;16.60;99.90;;;;;;4999458;28;20249;-88
2022/09/09 00:13:02;;;;;;;7.17;3.97;;;16.60;99.90;;;;;;4995235;28;20218;-89
2022/09/09 00:15:54;;;;;;;6.17;3.83;;;16.50;99.90;;;;;;5013733;28;20290;-86
2022/09/09 00:18:47;;;;;;;5.80;3.03;;;16.50;99.90;;;;;;4997427;28;20199;-88
2022/09/09 00:21:18;;;;;;;5.10;3.00;;;16.40;99.90;;;;;;4999408;28;20246;-91
2022/09/09 00:23:53;;;;;;;3.93;3.10;;;16.50;99.90;;;;;;4987870;28;20210;-90
2022/09/09 00:26:49;;;;;;;5.10;2.90;;;16.50;99.90;;;;;;4989765;28;20211;-89
2022/09/09 00:30:08;;;;;;;8.30;3.00;;;16.50;99.90;;;;;;5003900;28;20210;-89
2022/09/09 00:32:36;;;;;;;2.97;2.67;;;16.50;99.90;;;;;;4990496;28;20237;-87
2022/09/09 00:35:23;;;;;;;4.00;2.77;;;16.40;99.90;;;;;;5002025;28;20292;-87
2022/09/09 00:38:10;;;;;;;5.50;3.17;;;16.40;99.90;;;;;;5015460;28;20218;-88
2022/09/09 00:41:07;;;;;;;5.93;3.40;;;16.40;99.90;;;;;;4998578;28;20345;-88
2022/09/09 00:43:37;;;;;;;6.53;3.30;;;16.30;99.90;;;;;;5010268;28;20215;-87
2022/09/09 00:46:33;;;;;;;7.23;3.70;;;16.30;99.90;;;;;;5005450;28;20193;-88
2022/09/09 00:49:22;;;;;;;4.60;3.67;;;16.20;99.90;;;;;;5005997;28;20221;-88
2022/09/09 00:52:13;;;;;;;6.13;3.80;;;16.20;99.90;;;;;;5001042;28;20221;-88
2022/09/09 00:55:25;;;;;;;7.00;3.40;;;16.20;99.90;;;;;;4987400;28;20238;-90
2022/09/09 00:57:55;;;;;;;5.10;3.53;;;16.10;99.90;;;;;;4984732;28;20223;-88
2022/09/09 01:00:44;;;;;;;6.87;4.00;;;16.10;99.90;;;;;;4999055;28;20245;-88
2022/09/09 01:03:39;;;;;;;8.90;3.77;;;16.10;99.90;;;;;;5002451;28;20184;-89
2022/09/09 01:06:29;;;;;;;5.63;4.10;;;16.00;99.90;;;;;;5019544;28;20273;-90
2022/09/09 01:09:16;;;;;;;7.60;3.90;;;16.10;99.90;;;;;;4978770;28;20207;-89
2022/09/09 01:11:55;;;;;;;7.73;4.03;;;16.10;99.90;;;;;;4966198;28;20216;-90
2022/09/09 01:14:34;;;;;;;7.57;4.13;;;16.00;99.90;;;;;;4970110;28;20214;-87
2022/09/09 01:17:55;;;;;;;6.40;4.37;;;16.10;99.90;;;;;;4977899;28;20236;-89
2022/09/09 01:20:49;;;;;;;6.37;3.70;;;16.10;99.90;;;;;;4963167;28;20211;-89
2022/09/09 01:23:43;;;;;;;6.90;4.50;;;16.10;99.90;;;;;;4980133;28;20203;-89
2022/09/09 01:26:31;;;;;;;6.17;3.70;;;16.10;99.90;;;;;;4976839;28;20216;-88
2022/09/09 01:29:22;;;;;;;5.50;3.80;;;16.10;99.90;;;;;;5003556;28;20191;-88
2022/09/09 01:32:43;;;;;;;5.97;4.20;;;16.10;99.90;;;;;;4988195;28;20204;-89
2022/09/09 01:35:19;;;;;;;7.20;4.20;;;16.00;99.90;;;;;;4973347;28;20215;-88
2022/09/09 01:37:50;;;;;;;7.53;4.63;;;16.00;99.90;;;;;;5007461;28;20238;-89
2022/09/09 01:40:18;;;;;;;7.00;5.07;;;16.00;99.90;;;;;;4978696;28;20218;-88
2022/09/09 01:42:56;;;;;;;8.47;5.30;;;16.00;99.90;;;;;;4998243;28;20207;-88
2022/09/09 01:45:30;;;;;;;8.57;4.63;;;15.90;99.90;;;;;;4985755;28;21031;-89
2022/09/09 01:48:01;;;;;;;6.33;4.83;;;15.90;99.90;;;;;;4995489;28;20581;-89
2022/09/09 01:50:33;;;;;;;9.23;4.93;;;15.80;99.90;;;;;;4999363;28;20203;-90
2022/09/09 01:53:06;;;;;;;9.00;5.10;;;15.80;99.90;;;;;;4992581;28;20408;-90
2022/09/09 01:55:44;;;;;;;9.17;5.10;;;15.80;99.90;;;;;;4983803;28;20207;-89
2022/09/09 01:58:44;;;;;;;10.53;5.13;;;15.70;99.90;;;;;;4985936;28;20206;-90
2022/09/09 02:01:24;;;;;;;6.67;4.90;;;15.70;99.90;;;;;;4975116;28;20207;-90
2022/09/09 02:03:57;;;;;;;8.17;5.17;;;15.60;99.90;;;;;;4967461;28;20207;-90
2022/09/09 02:06:38;;;;;;;9.90;5.20;;;15.60;99.90;;;;;;4980380;28;20235;-89
2022/09/09 02:09:11;;;;;;;6.97;4.60;;;15.50;99.90;;;;;;4983306;28;20274;-89
2022/09/09 02:11:41;;;;;;;7.23;4.77;;;15.60;99.90;;;;;;4979970;28;20300;-88
2022/09/09 02:14:14;;;;;;;10.00;5.33;;;15.50;99.90;;;;;;4982376;28;20275;-88
2022/09/09 02:16:52;;;;;;;6.60;4.70;;;15.50;99.90;;;;;;4982392;28;20234;-89
2022/09/09 02:19:36;;;;;;;9.23;4.70;;;15.50;99.90;;;;;;4988254;28;20202;-89
2022/09/09 02:22:09;;;;;;;10.13;5.20;;;15.30;99.90;;;;;;4977333;28;20610;-90
2022/09/09 02:24:40;;;;;;;7.53;4.37;;;15.50;99.90;;;;;;4978885;28;20230;-89
2022/09/09 02:27:09;;;;;;;5.73;3.87;;;15.40;99.90;;;;;;4995893;28;20211;-90
2022/09/09 02:29:42;;;;;;;9.47;4.10;;;15.40;99.90;;;;;;4978028;28;20652;-89
2022/09/09 02:32:25;;;;;;;6.90;3.70;;;15.40;99.90;;;;;;4975351;28;20214;-90
2022/09/09 02:35:02;;;;;;;8.13;4.00;;;15.40;99.90;;;;;;4968144;28;20665;-89
2022/09/09 02:37:38;;;;;;;7.00;3.60;;;15.30;99.90;;;;;;4979417;28;20306;-89
2022/09/09 02:40:11;;;;;;;7.97;3.87;;;15.30;99.90;;;;;;4981211;28;20217;-89
2022/09/09 02:42:49;;;;;;;5.87;3.60;;;15.30;99.90;;;;;;4981670;28;20211;-88
2022/09/09 02:45:28;;;;;;;6.47;4.20;;;15.20;99.90;;;;;;4987700;28;20203;-90
2022/09/09 02:48:39;;;;;;;7.03;4.23;;;15.20;99.90;;;;;;4990939;28;20230;-89
2022/09/09 02:51:23;;;;;;;8.33;4.37;;;15.20;99.90;;;;;;4976115;28;20227;-88
2022/09/09 02:54:16;;;;;;;6.77;3.93;;;15.20;99.90;;;;;;4994775;28;20211;-89
2022/09/09 02:56:54;;;;;;;6.13;3.77;;;15.10;99.90;;;;;;4994614;28;20231;-91
2022/09/09 02:59:30;;;;;;;6.47;5.17;;;15.10;99.90;;;;;;4968747;28;20211;-89
2022/09/09 03:02:04;;;;;;;8.10;4.70;;;15.10;99.90;;;;;;4985178;28;20219;-90
2022/09/09 03:04:34;;;;;;;8.90;4.77;;;15.10;99.90;;;;;;4976190;28;20230;-88
2022/09/09 03:07:04;;;;;;;8.23;4.53;;;15.10;99.90;;;;;;4972683;28;20231;-88
2022/09/09 03:09:34;;;;;;;10.43;5.17;;;15.00;99.90;;;;;;4966059;28;20248;-88
2022/09/09 03:12:08;;;;;;;6.90;4.90;;;15.00;99.90;;;;;;4969629;28;20220;-89
2022/09/09 03:14:43;;;;;;;6.93;4.63;;;15.00;99.90;;;;;;4972153;28;20215;-89
2022/09/09 03:17:14;;;;;;;9.67;5.43;;;15.00;99.90;;;;;;4974119;28;20233;-89
2022/09/09 03:19:43;;;;;;;8.20;4.80;;;14.90;99.90;;;;;;4990449;28;20653;-90
2022/09/09 03:22:14;;;;;;;9.17;4.83;;;15.00;99.90;;;;;;4983074;28;20227;-89
2022/09/09 03:24:53;;;;;;;9.37;4.90;;;15.00;99.90;;;;;;4984914;28;20206;-90
2022/09/09 03:27:25;;;;;;;7.43;5.03;;;14.90;99.90;;;;;;4972066;28;20215;-90
2022/09/09 03:29:58;;;;;;;8.37;5.30;;;14.90;99.90;;;;;;4976776;28;20212;-89
2022/09/09 03:32:29;;;;;;;8.43;5.20;;;14.80;99.90;;;;;;4982594;28;20250;-88
2022/09/09 03:35:02;;;;;;;9.70;5.80;;;14.80;99.90;;;;;;4974587;28;20302;-89
2022/09/09 03:37:29;;;;;;;9.27;6.10;;;14.70;99.90;;;;;;4981169;28;20303;-89
2022/09/09 03:39:57;;;;;;;8.43;5.93;;;14.70;99.90;;;;;;4990414;28;20211;-90
2022/09/09 03:42:24;;;;;;;8.00;5.67;;;14.80;99.90;;;;;;4982096;28;20215;-88
2022/09/09 03:45:08;;;;;;;9.03;5.50;;;14.80;99.90;;;;;;4976804;28;20386;-89
2022/09/09 03:47:41;;;;;;;10.50;5.53;;;14.70;99.90;;;;;;4974785;28;20557;-88
2022/09/09 03:50:10;;;;;;;12.40;5.97;;;14.70;99.90;;;;;;4982328;28;20265;-89
2022/09/09 03:53:06;;;;;;;10.27;6.50;;;14.70;99.90;;;;;;4984005;28;20218;-89
2022/09/09 03:55:49;;;;;;;9.30;5.63;;;14.70;99.90;;;;;;4977663;28;20368;-89
2022/09/09 03:58:29;;;;;;;8.93;5.60;;;14.60;99.90;;;;;;4978937;28;20318;-87
2022/09/09 04:01:02;;;;;;;12.93;6.30;;;14.60;99.90;;;;;;4978793;28;20661;-88
2022/09/09 04:03:32;;;;;;;10.77;6.50;;;14.60;99.90;;;;;;4980050;28;20208;-87
2022/09/09 04:06:10;;;;;;;8.00;5.93;;;14.60;99.90;;;;;;4991112;28;20258;-89
2022/09/09 04:08:40;;;;;;;11.70;6.43;;;14.60;99.90;;;;;;4998519;28;20681;-89
2022/09/09 04:11:11;;;;;;;7.47;6.20;;;14.60;99.90;;;;;;5001340;28;20202;-88
2022/09/09 04:13:49;;;;;;;11.03;6.33;;;14.60;99.90;;;;;;4989386;28;20203;-88
2022/09/09 04:16:20;;;;;;;10.33;7.00;;;14.60;99.90;;;;;;5004916;28;20202;-89
2022/09/09 04:18:50;;;;;;;10.97;7.40;;;14.60;99.90;;;;;;5004565;28;20313;-88
2022/09/09 04:21:17;;;;;;;11.40;6.73;;;14.60;99.90;;;;;;4997645;28;20245;-89
2022/09/09 04:23:47;;;;;;;11.73;6.83;;;14.60;99.90;;;;;;4993609;28;20211;-87
2022/09/09 04:26:18;;;;;;;12.57;7.87;;;14.60;99.90;;;;;;4988558;28;20270;-89
2022/09/09 04:28:50;;;;;;;13.00;8.13;;;14.70;99.90;;;;;;4995276;28;20283;-90
2022/09/09 04:31:22;;;;;;;13.13;7.63;;;14.60;99.90;;;;;;5006271;28;20226;-87
2022/09/09 04:33:50;;;;;;;11.03;7.20;;;14.70;99.90;;;;;;4997591;28;20219;-89
2022/09/09 04:36:22;;;;;;;13.67;7.83;;;14.70;99.90;;;;;;5001112;28;20219;-89
2022/09/09 04:38:50;;;;;;;12.83;7.73;;;14.70;99.90;;;;;;5005964;28;20209;-88
2022/09/09 04:41:22;;;;;;;16.40;8.70;;;14.70;99.90;;;;;;5013856;28;20245;-88
2022/09/09 04:43:53;;;;;;;11.30;7.57;;;14.70;99.90;;;;;;5002220;28;20215;-88
2022/09/09 04:46:25;;;;;;;10.93;7.80;;;14.70;99.90;;;;;;5003165;28;20210;-88
2022/09/09 04:48:54;;;;;;;11.67;7.57;;;14.80;99.90;;;;;;4995069;28;20215;-89
2022/09/09 04:51:31;;;;;;;12.37;7.20;;;14.80;99.90;;;;;;4998971;28;20197;-89
2022/09/09 04:53:59;;;;;;;13.70;7.97;;;14.80;99.90;;;;;;5010887;28;20213;-89
2022/09/09 04:56:36;;;;;;;13.80;7.33;;;14.80;99.90;;;;;;5009140;28;20302;-89
2022/09/09 04:59:07;;;;;;;12.53;7.87;;;14.80;99.90;;;;;;5007131;28;20206;-90
2022/09/09 05:01:43;;;;;;;14.43;8.40;;;14.70;99.90;;;;;;5002293;28;20195;-89
2022/09/09 05:04:16;;;;;;;15.10;8.27;;;14.70;99.90;;;;;;4992488;28;20203;-91
2022/09/09 05:06:52;;;;;;;14.30;8.33;;;14.70;99.90;;;;;;5012769;28;20218;-89
2022/09/09 05:09:24;;;;;;;15.13;8.13;;;14.70;99.90;;;;;;5002088;28;20209;-89
2022/09/09 05:11:58;;;;;;;17.30;8.13;;;14.80;99.90;;;;;;5013248;28;20260;-87
2022/09/09 05:14:31;;;;;;;16.00;9.00;;;14.80;99.90;;;;;;4988950;28;20221;-89
2022/09/09 05:17:47;;;;;;;;;;;;;;;;;;;;;
2022/09/09 05:20:32;;;;;;;15.37;8.50;;;14.70;99.90;;;;;;5012956;28;20221;-89
2022/09/09 05:23:06;;;;;;;16.77;8.00;;;14.80;99.90;;;;;;4985770;28;20226;-92
2022/09/09 05:25:47;;;;;;;14.87;9.17;;;14.80;99.90;;;;;;4998426;28;20271;-89
2022/09/09 05:28:17;;;;;;;15.10;8.97;;;14.80;99.90;;;;;;4994689;28;20203;-92
2022/09/09 05:31:14;;;;;;;;;;;;;;;;;;;;;
2022/09/09 05:34:25;;;;;;;;;;;;;;;;;;;;;
2022/09/09 05:37:16;;;;;;;15.30;9.60;;;14.90;99.90;;;;;;4952718;29;20729;-93
2022/09/09 05:39:56;;;;;;;18.43;10.47;;;14.80;99.90;;;;;;4953410;29;20219;-95
2022/09/09 05:43:00;;;;;;;16.50;9.60;;;14.80;99.90;;;;;;4936424;29;20235;-92
2022/09/09 05:45:44;;;;;;;15.27;8.93;;;14.90;99.90;;;;;;4940009;28;20227;-91
2022/09/09 05:48:15;;;;;;;15.90;9.43;;;14.80;99.90;;;;;;4931497;29;20205;-88
2022/09/09 05:50:48;;;;;;;17.77;9.43;;;14.90;99.90;;;;;;4934115;29;20225;-85
2022/09/09 05:53:22;;;;;;;15.03;8.83;;;14.90;99.90;;;;;;4929109;29;20782;-96
2022/09/09 05:56:03;;;;;;;15.93;9.60;;;15.00;99.90;;;;;;4936681;29;20205;-95
2022/09/09 05:58:38;;;;;;;17.63;9.23;;;15.00;99.90;;;;;;4934726;29;20303;-89
2022/09/09 06:01:30;;;;;;;15.27;8.70;;;15.10;99.90;;;;;;4954863;29;20244;-87
2022/09/09 06:04:24;;;;;;;13.57;8.47;;;15.10;99.90;;;;;;4949064;28;20213;-87
2022/09/09 06:07:14;;;;;;;13.90;8.23;;;15.20;99.90;;;;;;4972323;28;20223;-95
2022/09/09 06:10:13;;;;;;;14.27;8.90;;;15.30;99.90;;;;;;4968678;28;20231;-89
2022/09/09 06:13:02;;;;;;;14.67;8.23;;;15.30;99.90;;;;;;4970626;28;20221;-91
2022/09/09 06:15:34;;;;;;;14.73;8.37;;;15.30;99.90;;;;;;4957487;28;20223;-88
2022/09/09 06:18:11;;;;;;;11.73;7.00;;;15.40;99.90;;;;;;4973393;28;20337;-89
2022/09/09 06:23:55;;;;;;;11.30;7.70;;;15.40;99.90;;;;;;4994924;28;20253;-90
2022/09/09 06:26:45;;;;;;;13.37;7.97;;;15.40;99.90;;;;;;4988384;28;20214;-90
2022/09/09 06:29:19;;;;;;;12.50;7.93;;;15.50;99.90;;;;;;4983273;28;20203;-90
2022/09/09 06:32:37;;;;;;;16.47;7.60;;;15.50;99.90;;;;;;4993561;28;20190;-90
2022/09/09 06:35:31;;;;;;;13.73;7.80;;;15.60;99.90;;;;;;4946054;23;20353;-81
2022/09/09 06:37:58;;;;;;;17.07;7.67;;;15.60;99.90;;;;;;4992982;23;20227;-82
2022/09/09 06:40:25;;;;;;;14.60;7.33;;;15.60;99.90;;;;;;4985482;28;20207;-83
2022/09/09 06:42:53;;;;;;;13.67;8.13;;;15.80;99.90;;;;;;4984254;28;20206;-82
2022/09/09 06:45:22;;;;;;;11.97;6.93;;;15.90;99.90;;;;;;5002204;28;20215;-82
2022/09/09 06:47:49;;;;;;;14.47;7.47;;;16.00;99.90;;;;;;4997367;28;20298;-82
2022/09/09 06:50:16;;;;;;;11.90;6.57;;;16.20;99.90;;;;;;4996742;28;20317;-84
2022/09/09 06:52:47;;;;;;;13.00;6.20;;;16.40;99.90;;;;;;4981431;28;20659;-82
2022/09/09 06:55:15;;;;;;;13.80;6.18;;;16.60;99.90;;;;;;4993811;28;20236;-82
2022/09/09 06:57:45;;;;;;;14.97;6.07;;;16.70;99.90;;;;;;4993691;28;20223;-83
2022/09/09 07:00:13;;;;;;;12.27;6.63;;;16.80;99.90;;;;;;5001088;28;20215;-83
2022/09/09 07:02:44;;;;;;;9.32;5.53;;;16.90;99.90;;;;;;4987580;28;20253;-83
2022/09/09 07:05:11;;;;;;;8.45;4.47;;;17.20;99.90;;;;;;4986747;28;20278;-82
2022/09/09 07:07:38;;;;;;;8.10;4.57;;;17.70;99.90;;;;;;5000729;28;20632;-82
2022/09/09 07:10:05;;;;;;;10.32;5.40;;;18.20;99.90;;;;;;4981118;28;20211;-81
2022/09/09 07:12:32;;;;;;;10.88;4.93;;;18.20;99.90;;;;;;5000396;28;20207;-82
2022/09/09 07:14:59;;;;;;;10.13;5.22;;;18.30;99.90;;;;;;4999922;28;20526;-82
2022/09/09 07:17:28;;;;;;;5.93;4.15;;;18.50;99.90;;;;;;4998336;28;20237;-82
2022/09/09 07:19:55;;;;;;;9.70;3.70;;;18.70;99.90;;;;;;4980260;28;20227;-82
2022/09/09 07:22:22;;;;;;;7.30;3.72;;;19.10;99.90;;;;;;4998902;28;20760;-82
2022/09/09 07:24:49;;;;;;;9.27;3.72;;;19.50;99.90;;;;;;4999652;28;20210;-81
2022/09/09 07:27:16;;;;;;;14.93;3.83;;;19.80;99.90;;;;;;4994790;28;20221;-81
2022/09/09 07:29:43;;;;;;;8.88;4.05;;;20.00;99.90;;;;;;4994596;28;20202;-82
2022/09/09 07:32:12;;;;;;;6.25;3.67;;;20.10;99.90;;;;;;4997800;28;20225;-83
2022/09/09 07:34:39;;;;;;;8.32;3.88;;;19.90;99.90;;;;;;4977699;28;20207;-80
2022/09/09 07:37:06;;;;;;;8.98;4.03;;;19.80;99.90;;;;;;4996427;28;20269;-81
2022/09/09 07:39:33;;;;;;;11.57;3.50;;;19.70;99.90;;;;;;4993581;28;20210;-81
2022/09/09 07:42:00;;;;;;;7.68;3.65;;;19.60;99.90;;;;;;4971219;28;20218;-80
2022/09/09 07:44:32;;;;;;;8.75;2.97;;;19.60;99.90;;;;;;4994846;28;20207;-80
2022/09/09 07:46:59;;;;;;;6.43;3.13;;;19.50;99.90;;;;;;4998371;28;20209;-80
2022/09/09 07:49:26;;;;;;;9.82;3.28;;;19.50;99.90;;;;;;4995883;28;20210;-81
2022/09/09 07:51:58;;;;;;;7.78;3.10;;;19.50;99.90;;;;;;4997669;28;20222;-80
2022/09/09 07:54:26;;;;;;;9.50;3.20;;;19.50;99.90;;;;;;4995340;28;20207;-80
2022/09/09 07:56:53;;;;;;;5.05;3.08;;;19.60;99.90;;;;;;4996398;28;20281;-79
2022/09/09 07:59:20;;;;;;;6.47;3.33;;;19.60;99.90;;;;;;4999344;28;20329;-80
2022/09/09 08:01:53;;;;;;;10.15;3.35;;;19.60;99.90;;;;;;4999897;28;20620;-81
2022/09/09 08:04:21;;;;;;;9.32;3.05;;;19.70;99.90;;;;;;4981469;28;20215;-80
2022/09/09 08:06:54;;;;;;;8.23;3.25;;;19.70;99.90;;;;;;5000634;28;20219;-79
2022/09/09 08:09:24;;;;;;;6.90;2.80;;;19.70;99.90;;;;;;4981353;28;20209;-80
2022/09/09 08:11:51;;;;;;;9.48;2.92;;;19.70;99.90;;;;;;4999598;28;20215;-80
2022/09/09 08:14:18;;;;;;;8.73;2.60;;;19.70;99.90;;;;;;5002572;28;20578;-80
2022/09/09 08:16:47;;;;;;;11.70;3.63;;;19.90;99.90;;;;;;4982637;28;20269;-80
2022/09/09 08:19:17;;;;;;;9.07;3.28;;;20.00;99.90;;;;;;4981271;28;20262;-81
2022/09/09 08:21:45;;;;;;;6.88;3.08;;;20.10;99.90;;;;;;4997783;28;20326;-80
2022/09/09 08:24:16;;;;;;;11.77;2.90;;;20.00;99.90;;;;;;5001601;28;20304;-79
2022/09/09 08:26:48;;;;;;;6.22;3.08;;;19.90;99.90;;;;;;4982916;28;20211;-81
2022/09/09 08:29:17;;;;;;;7.85;3.13;;;19.80;99.90;;;;;;4999641;28;20706;-80
2022/09/09 08:31:45;;;;;;;8.32;3.00;;;19.70;99.90;;;;;;5000769;28;20272;-80
2022/09/09 08:34:12;;;;;;;9.25;3.00;;;19.60;99.90;;;;;;5001562;28;20214;-79
2022/09/09 08:36:44;;;;;;;6.82;3.15;;;19.50;99.90;;;;;;4985300;28;20273;-78
2022/09/09 08:39:14;;;;;;;9.02;2.85;;;19.50;99.90;;;;;;4999714;28;20222;-78
2022/09/09 08:42:02;;;;;;;10.63;2.90;;;19.60;99.90;;;;;;4979291;28;20290;-78
2022/09/09 08:44:34;;;;;;;9.38;2.53;;;19.70;99.90;;;;;;4999240;28;20605;-80
2022/09/09 08:47:42;;;;;;;8.65;3.15;;;19.90;99.90;;;;;;4999828;28;20629;-78
2022/09/09 08:50:16;;;;;;;6.82;2.80;;;20.00;99.90;;;;;;4993676;28;20211;-78
2022/09/09 08:53:10;;;;;;;9.40;2.85;;;20.10;99.90;;;;;;4999949;28;20729;-81
2022/09/09 08:55:48;;;;;;;8.18;3.13;;;20.20;99.90;;;;;;5000030;28;20296;-78
2022/09/09 08:58:29;;;;;;;8.43;2.95;;;20.20;99.90;;;;;;4999208;28;20686;-78
2022/09/09 09:01:08;;;;;;;5.97;2.63;;;20.10;99.90;;;;;;4993620;28;20198;-77
2022/09/09 09:03:59;;;;;;;8.55;2.42;;;20.00;99.90;;;;;;5003327;28;20294;-77
2022/09/09 09:06:36;;;;;;;7.10;2.83;;;19.90;99.90;;;;;;4980850;28;20583;-77
2022/09/09 09:09:18;;;;;;;7.72;3.42;;;19.80;99.90;;;;;;5000568;28;20207;-78
2022/09/09 09:12:00;;;;;;;8.82;3.08;;;19.60;99.90;;;;;;5000427;28;20618;-76
2022/09/09 09:14:30;;;;;;;9.40;2.88;;;19.50;99.90;;;;;;4999296;28;20206;-76
2022/09/09 09:17:06;;;;;;;7.75;2.83;;;19.30;99.90;;;;;;4994636;28;20199;-78
2022/09/09 09:19:35;;;;;;;12.63;2.97;;;19.30;99.90;;;;;;4999728;28;20234;-77
2022/09/09 09:22:19;;;;;;;8.07;2.90;;;19.20;99.90;;;;;;4979037;28;20244;-78
2022/09/09 09:24:54;;;;;;;6.70;2.95;;;19.20;99.90;;;;;;4997939;28;20307;-76
2022/09/09 09:27:40;;;;;;;14.60;2.80;;;19.20;99.90;;;;;;4996715;28;20315;-75
2022/09/09 09:30:19;;;;;;;7.60;3.05;;;19.20;99.90;;;;;;4997944;28;20294;-76
2022/09/09 09:32:55;;;;;;;4.55;2.75;;;19.30;99.90;;;;;;4996793;28;20214;-78
2022/09/09 09:35:22;;;;;;;9.27;3.03;;;19.40;99.90;;;;;;4999176;28;20605;-76
2022/09/09 09:37:50;;;;;;;5.85;2.72;;;19.40;99.90;;;;;;4993964;28;20230;-76
2022/09/09 09:40:48;;;;;;;10.30;3.55;;;19.40;99.90;;;;;;4984175;28;20642;-75
2022/09/09 09:43:21;;;;;;;5.60;2.90;;;19.30;99.90;;;;;;4993903;28;20191;-76
2022/09/09 09:45:49;;;;;;;12.35;4.30;;;19.40;99.90;;;;;;4995077;28;20222;-76
2022/09/09 09:48:36;;;;;;;7.38;3.05;;;19.40;99.90;;;;;;5001946;28;20299;-76
2022/09/09 09:51:10;;;;;;;7.35;2.90;;;19.50;99.90;;;;;;4981028;28;20286;-76
2022/09/09 09:53:38;;;;;;;7.72;2.60;;;19.60;99.90;;;;;;4998124;28;20261;-76
2022/09/09 09:56:08;;;;;;;8.35;2.50;;;19.70;99.90;;;;;;4989035;28;20203;-77
2022/09/09 09:58:38;;;;;;;8.75;2.92;;;19.80;99.90;;;;;;4995335;28;20223;-76
2022/09/09 10:01:06;;;;;;;8.95;2.50;;;19.90;99.90;;;;;;4985757;28;20575;-76
2022/09/09 10:03:40;;;;;;;5.47;2.45;;;20.00;99.90;;;;;;4992789;28;20282;-76
2022/09/09 10:06:07;;;;;;;9.93;2.40;;;20.00;99.90;;;;;;4991702;28;21080;-77
2022/09/09 10:08:47;;;;;;;4.63;1.88;;;20.10;99.90;;;;;;4995174;28;20221;-75
2022/09/09 10:11:37;;;;;;;9.13;2.45;;;20.10;99.90;;;;;;4997226;28;20254;-76
2022/09/09 10:14:22;;;;;;;6.55;2.28;;;20.00;99.90;;;;;;4966397;28;20657;-77
2022/09/09 10:17:09;;;;;;;4.88;1.90;;;19.90;99.90;;;;;;4997316;28;20226;-74
2022/09/09 10:19:40;;;;;;;5.03;1.90;;;19.90;99.90;;;;;;5001036;28;20245;-74
2022/09/09 10:22:27;;;;;;;8.38;2.58;;;19.80;99.90;;;;;;4998302;28;20602;-73
2022/09/09 10:25:28;;;;;;;8.50;2.30;;;19.70;99.90;;;;;;5000198;28;20232;-73
2022/09/09 10:28:41;;;;;;;7.68;2.40;;;19.80;99.90;;;;;;4980165;28;20292;-73
2022/09/09 10:31:45;;;;;;;4.75;2.05;;;20.00;99.90;;;;;;4933405;28;20205;-73
2022/09/09 10:34:36;;;;;;;6.40;2.40;;;20.40;99.90;;;;;;4963819;28;20239;-75
2022/09/09 10:37:25;;;;;;;8.48;2.42;;;20.90;99.90;;;;;;4996252;28;20237;-75
2022/09/09 10:40:15;;;;;;;3.35;1.70;;;21.00;99.90;;;;;;4998190;28;20597;-75
2022/09/09 10:42:43;;;;;;;8.75;2.22;;;21.00;99.90;;;;;;4997333;28;20500;-76
2022/09/09 10:45:34;;;;;;;8.50;2.38;;;21.00;99.90;;;;;;4980313;28;20678;-76
2022/09/09 10:48:30;;;;;;;6.63;2.30;;;21.00;99.90;;;;;;5004308;28;20282;-74
2022/09/09 10:51:20;;;;;;;8.20;2.30;;;20.80;99.90;;;;;;4972732;28;20729;-75
2022/09/09 10:54:06;;;;;;;5.70;1.80;;;20.70;99.90;;;;;;4994655;28;20715;-74
2022/09/09 10:56:34;;;;;;;7.85;1.90;;;20.50;99.90;;;;;;4995035;28;20324;-77
2022/09/09 10:59:17;;;;;;;9.45;2.13;;;20.30;99.90;;;;;;4978397;28;20222;-75
2022/09/09 11:02:09;;;;;;;7.07;1.77;;;20.20;99.90;;;;;;4993092;28;20743;-75
2022/09/09 11:04:44;;;;;;;5.10;1.98;;;20.10;99.90;;;;;;4989944;28;20203;-75
2022/09/09 11:07:21;;;;;;;8.93;1.85;;;20.00;99.90;;;;;;4992721;28;20668;-74
2022/09/09 11:09:55;;;;;;;8.73;2.35;;;19.90;99.90;;;;;;4977069;28;20211;-74
2022/09/09 11:12:24;;;;;;;8.00;2.40;;;19.70;99.90;;;;;;4995351;28;20219;-74
2022/09/09 11:15:05;;;;;;;6.10;2.10;;;19.80;99.90;;;;;;4997244;28;20202;-75
2022/09/09 11:17:52;;;;;;;10.77;2.75;;;19.90;99.90;;;;;;4999569;28;20451;-75
2022/09/09 11:20:19;;;;;;;5.75;1.83;;;20.00;99.90;;;;;;4994845;28;20317;-75
2022/09/09 11:23:15;;;;;;;4.70;1.80;;;20.10;99.90;;;;;;4979781;28;20229;-75
2022/09/09 11:25:47;;;;;;;6.28;1.67;;;20.20;99.90;;;;;;4984456;28;20572;-75
2022/09/09 11:28:47;;;;;;;6.03;1.92;;;20.20;99.90;;;;;;4974755;28;20765;-75
2022/09/09 11:31:33;;;;;;;6.78;2.05;;;20.20;99.90;;;;;;4916736;28;20621;-74
2022/09/09 11:34:25;;;;;;;5.88;2.10;;;20.10;99.90;;;;;;4995416;28;20245;-75
2022/09/09 11:37:00;;;;;;;9.40;2.35;;;20.20;99.90;;;;;;4999370;28;20754;-73
2022/09/09 11:39:30;;;;;;;10.63;2.10;;;20.30;99.90;;;;;;5005609;28;20230;-74
2022/09/09 11:42:26;;;;;;;6.15;2.42;;;20.40;99.90;;;;;;5001904;28;20644;-74
2022/09/09 11:44:54;;;;;;;7.25;2.08;;;20.50;99.90;;;;;;4992483;28;20209;-74
2022/09/09 11:47:31;;;;;;;5.20;2.13;;;20.60;99.90;;;;;;4995748;28;20204;-74
2022/09/09 11:50:31;;;;;;;8.70;2.38;;;20.70;99.90;;;;;;4997843;28;20210;-75
2022/09/09 11:53:04;;;;;;;8.18;2.10;;;20.70;99.90;;;;;;4978410;28;20205;-75
2022/09/09 11:55:34;;;;;;;8.05;2.45;;;20.80;99.90;;;;;;4999594;28;20293;-75
2022/09/09 11:58:15;;;;;;;6.65;2.13;;;20.70;99.90;;;;;;4993919;28;20223;-74
2022/09/09 12:00:47;;;;;;;6.32;2.28;;;20.50;99.90;;;;;;4986781;28;20206;-74
2022/09/09 12:03:45;;;;;;;8.38;2.85;;;20.20;99.90;;;;;;4997763;28;20195;-74
2022/09/09 12:06:33;;;;;;;4.78;2.20;;;20.10;99.90;;;;;;4989098;28;20210;-74
2022/09/09 12:09:23;;;;;;;8.00;2.58;;;20.10;99.90;;;;;;4998798;28;20199;-79
2022/09/09 12:11:50;;;;;;;12.98;2.83;;;20.20;99.90;;;;;;4998256;28;20284;-76
2022/09/09 12:14:38;;;;;;;8.77;2.80;;;20.40;99.90;;;;;;4996147;28;20643;-76
2022/09/09 12:17:14;;;;;;;7.20;2.70;;;20.70;99.90;;;;;;4997403;28;20243;-76
2022/09/09 12:19:42;;;;;;;8.45;3.03;;;20.80;99.90;;;;;;4997876;28;20605;-76
2022/09/09 12:22:21;;;;;;;8.05;2.90;;;20.90;99.90;;;;;;4994125;28;20329;-76
2022/09/09 12:24:53;;;;;;;7.28;2.85;;;20.90;99.90;;;;;;5001591;28;20444;-76
2022/09/09 12:27:40;;;;;;;3.92;1.90;;;21.00;99.90;;;;;;5000604;28;20796;-75
2022/09/09 12:30:17;;;;;;;5.53;2.55;;;21.10;99.90;;;;;;4992966;28;20290;-77
2022/09/09 12:32:44;;;;;;;5.10;1.63;;;20.90;99.90;;;;;;4996913;28;20321;-77
2022/09/09 12:35:22;;;;;;;6.60;1.98;;;20.80;99.90;;;;;;4999370;28;20625;-77
2022/09/09 12:38:23;;;;;;;5.65;1.73;;;20.70;99.90;;;;;;4998593;28;20356;-76
2022/09/09 12:40:57;;;;;;;4.28;1.67;;;20.60;99.90;;;;;;4999721;28;20295;-75
2022/09/09 12:43:26;;;;;;;3.67;1.50;;;20.50;99.90;;;;;;4999269;28;20293;-75
2022/09/09 12:46:08;;;;;;;4.65;1.77;;;20.50;99.90;;;;;;4995638;28;20215;-76
2022/09/09 12:48:40;;;;;;;4.78;1.80;;;20.60;99.90;;;;;;4980452;28;20302;-76
2022/09/09 12:51:23;;;;;;;7.38;1.92;;;20.50;99.90;;;;;;4998892;28;20261;-76
2022/09/09 12:53:52;;;;;;;5.25;2.03;;;20.50;99.90;;;;;;5000732;28;20298;-76
2022/09/09 12:56:33;;;;;;;4.80;1.55;;;20.50;99.90;;;;;;5000410;28;20301;-76
2022/09/09 12:59:01;;;;;;;4.18;1.50;;;20.60;99.90;;;;;;4997468;28;20231;-77
2022/09/09 13:01:35;;;;;;;3.47;1.45;;;20.60;99.90;;;;;;4999343;28;20216;-76
2022/09/09 13:04:04;;;;;;;4.40;1.73;;;20.70;99.90;;;;;;4981272;28;20698;-75
2022/09/09 13:06:32;;;;;;;2.30;1.40;;;20.60;99.90;;;;;;4998844;28;20280;-75
2022/09/09 13:09:01;;;;;;;4.85;1.80;;;20.60;99.90;;;;;;4997853;28;20215;-75
2022/09/09 13:11:38;;;;;;;3.42;1.48;;;20.70;99.90;;;;;;4999484;28;20673;-76
2022/09/09 13:14:06;;;;;;;3.58;1.48;;;20.90;99.90;;;;;;4998880;28;20306;-75
2022/09/09 13:16:35;;;;;;;3.55;1.45;;;20.90;99.90;;;;;;5002088;28;20239;-75
2022/09/09 13:19:16;;;;;;;5.05;1.63;;;21.00;99.90;;;;;;5000145;28;20571;-75
2022/09/09 13:21:43;;;;;;;4.50;1.63;;;21.10;99.90;;;;;;5001081;28;20222;-75
2022/09/09 13:24:32;;;;;;;7.57;1.80;;;21.20;99.90;;;;;;4998847;28;20258;-75
2022/09/09 13:27:02;;;;;;;3.78;1.45;;;21.20;99.90;;;;;;4999820;28;20297;-75
2022/09/09 13:29:31;;;;;;;5.50;2.00;;;21.10;99.90;;;;;;4997920;28;20211;-76
2022/09/09 13:32:06;;;;;;;3.70;1.55;;;21.10;99.90;;;;;;4981401;28;20239;-76
2022/09/09 13:34:36;;;;;;;3.50;2.00;;;21.10;99.90;;;;;;4986104;28;20302;-76
2022/09/09 13:37:05;;;;;;;4.50;1.55;;;21.30;99.90;;;;;;4997006;28;20884;-76
2022/09/09 13:39:35;;;;;;;4.57;1.83;;;21.20;99.90;;;;;;4981204;28;20647;-75
2022/09/09 13:42:03;;;;;;;7.40;1.95;;;21.20;99.90;;;;;;5006284;28;20217;-75
2022/09/09 13:44:36;;;;;;;3.80;1.65;;;21.10;99.90;;;;;;4998538;28;20583;-76
2022/09/09 13:47:05;;;;;;;4.97;1.90;;;21.10;99.90;;;;;;4997206;28;20213;-76